createdAt,value
2023-04-01T00:01:55.395Z,0.90
2023-04-01T00:03:58.838Z,1.77
2023-04-01T00:06:02.899Z,1.63
2023-04-01T00:08:06.928Z,1.40
2023-04-01T00:10:12.752Z,2.20
2023-04-01T00:12:17.574Z,0.80
2023-04-01T00:14:21.007Z,2.23
2023-04-01T00:16:24.490Z,1.87
2023-04-01T00:18:28.075Z,3.00
2023-04-01T00:20:31.720Z,1.77
2023-04-01T00:22:35.713Z,2.03
2023-04-01T00:24:39.525Z,1.00
2023-04-01T00:26:43.397Z,0.80
2023-04-01T00:28:48.837Z,1.83
2023-04-01T00:30:52.421Z,1.43
2023-04-01T00:32:56.141Z,1.37
2023-04-01T00:35:00.491Z,1.67
2023-04-01T00:37:03.829Z,1.60
2023-04-01T00:39:07.230Z,2.37
2023-04-01T00:41:15.121Z,2.73
2023-04-01T00:43:21.980Z,1.00
2023-04-01T00:45:31.899Z,0.90
2023-04-01T00:47:35.512Z,0.80
2023-04-01T00:49:42.826Z,2.50
2023-04-01T00:51:49.864Z,1.27
2023-04-01T00:53:56.643Z,1.80
2023-04-01T00:56:04.950Z,1.13
2023-04-01T00:58:13.919Z,1.40
2023-04-01T01:00:19.428Z,1.40
2023-04-01T01:02:25.084Z,1.63
2023-04-01T01:04:30.267Z,0.80
2023-04-01T01:06:45.241Z,1.00
2023-04-01T01:09:04.694Z,1.90
2023-04-01T01:11:12.670Z,1.93
2023-04-01T01:13:22.646Z,1.17
2023-04-01T01:15:29.369Z,0.80
2023-04-01T01:17:46.323Z,1.10
2023-04-01T01:20:22.690Z,1.10
2023-04-01T01:22:46.749Z,1.50
2023-04-01T01:25:10.901Z,1.07
2023-04-01T01:27:18.036Z,0.80
2023-04-01T01:29:44.578Z,2.30
2023-04-01T01:31:59.390Z,3.03
2023-04-01T01:34:19.327Z,1.10
2023-04-01T01:36:28.341Z,1.20
2023-04-01T01:38:35.954Z,0.70
2023-04-01T01:40:44.340Z,0.97
2023-04-01T01:42:51.613Z,4.20
2023-04-01T01:44:58.020Z,0.90
2023-04-01T01:47:02.661Z,0.90
2023-04-01T01:49:08.932Z,1.30
2023-04-01T01:51:12.619Z,0.87
2023-04-01T01:53:18.333Z,3.13
2023-04-01T01:55:30.419Z,2.70
2023-04-01T01:57:38.763Z,0.90
2023-04-01T01:59:49.549Z,0.80
2023-04-01T02:02:01.466Z,0.80
2023-04-01T02:04:06.288Z,1.30
2023-04-01T02:06:16.063Z,0.80
2023-04-01T02:08:24.798Z,5.43
2023-04-01T02:10:30.808Z,1.60
2023-04-01T02:12:37.226Z,1.13
2023-04-01T02:14:45.994Z,2.23
2023-04-01T02:16:55.777Z,2.20
2023-04-01T02:19:01.761Z,1.00
2023-04-01T02:21:06.613Z,0.70
2023-04-01T02:23:11.831Z,1.20
2023-04-01T02:25:20.582Z,0.80
2023-04-01T02:27:24.025Z,0.70
2023-04-01T02:29:27.927Z,1.47
2023-04-01T02:31:32.107Z,2.80
2023-04-01T02:33:36.053Z,0.70
2023-04-01T02:35:39.695Z,0.90
2023-04-01T02:37:45.893Z,0.70
2023-04-01T02:39:49.279Z,1.27
2023-04-01T02:41:54.677Z,1.57
2023-04-01T02:43:59.474Z,0.80
2023-04-01T02:46:03.029Z,0.80
2023-04-01T02:48:07.362Z,0.87
2023-04-01T02:50:11.581Z,0.90
2023-04-01T02:52:15.287Z,0.70
2023-04-01T02:54:18.704Z,0.70
2023-04-01T02:56:22.322Z,1.60
2023-04-01T02:58:27.262Z,2.50
2023-04-01T03:00:30.939Z,1.03
2023-04-01T03:02:34.345Z,0.90
2023-04-01T03:04:37.770Z,1.23
2023-04-01T03:06:41.212Z,2.97
2023-04-01T03:08:45.303Z,0.90
2023-04-01T03:10:48.913Z,1.20
2023-04-01T03:12:52.231Z,0.80
2023-04-01T03:14:56.951Z,0.70
2023-04-01T03:17:14.720Z,1.53
2023-04-01T03:19:18.123Z,0.80
2023-04-01T03:21:23.459Z,0.90
2023-04-01T03:23:27.019Z,0.90
2023-04-01T03:25:31.729Z,1.07
2023-04-01T03:27:36.516Z,1.00
2023-04-01T03:29:39.911Z,1.30
2023-04-01T03:31:44.852Z,0.87
2023-04-01T03:33:48.305Z,1.07
2023-04-01T03:35:53.106Z,2.87
2023-04-01T03:37:56.984Z,0.70
2023-04-01T03:40:00.440Z,0.80
2023-04-01T03:42:03.759Z,0.90
2023-04-01T03:44:07.189Z,0.77
2023-04-01T03:46:11.467Z,1.00
2023-04-01T03:48:17.044Z,0.90
2023-04-01T03:50:20.585Z,0.87
2023-04-01T03:52:23.974Z,0.80
2023-04-01T03:54:27.389Z,0.70
2023-04-01T03:56:30.677Z,0.90
2023-04-01T03:58:34.033Z,0.97
2023-04-01T04:00:39.131Z,0.80
2023-04-01T04:02:43.098Z,2.23
2023-04-01T04:04:50.166Z,0.80
2023-04-01T04:06:53.625Z,0.70
2023-04-01T04:08:59.371Z,0.80
2023-04-01T04:11:04.429Z,0.80
2023-04-01T04:13:07.842Z,0.90
2023-04-01T04:15:20.271Z,1.00
2023-04-01T04:17:25.805Z,0.97
2023-04-01T04:19:34.733Z,2.43
2023-04-01T04:21:43.969Z,0.90
2023-04-01T04:23:47.533Z,1.30
2023-04-01T04:25:58.808Z,1.20
2023-04-01T04:28:03.177Z,0.70
2023-04-01T04:30:09.385Z,1.10
2023-04-01T04:32:14.125Z,0.77
2023-04-01T04:34:19.236Z,0.90
2023-04-01T04:36:27.017Z,1.33
2023-04-01T04:38:36.420Z,0.80
2023-04-01T04:40:43.488Z,0.90
2023-04-01T04:42:48.521Z,0.83
2023-04-01T04:44:57.288Z,0.90
2023-04-01T04:47:02.014Z,0.70
2023-04-01T04:49:07.456Z,1.23
2023-04-01T04:51:18.126Z,0.70
2023-04-01T04:53:23.639Z,0.70
2023-04-01T04:55:33.262Z,0.70
2023-04-01T04:57:57.872Z,0.90
2023-04-01T05:00:01.692Z,0.77
2023-04-01T05:02:21.540Z,0.70
2023-04-01T05:04:30.641Z,0.90
2023-04-01T05:06:37.782Z,0.70
2023-04-01T05:08:46.518Z,0.70
2023-04-01T05:10:56.360Z,1.67
2023-04-01T05:13:00.133Z,0.70
2023-04-01T05:15:03.869Z,0.80
2023-04-01T05:17:11.049Z,1.33
2023-04-01T05:19:14.747Z,1.00
2023-04-01T05:21:18.239Z,1.20
2023-04-01T05:23:22.889Z,1.10
2023-04-01T05:25:26.654Z,0.80
2023-04-01T05:27:31.364Z,0.80
2023-04-01T05:29:35.994Z,1.57
2023-04-01T05:31:42.969Z,0.73
2023-04-01T05:33:46.369Z,0.97
2023-04-01T05:35:49.754Z,1.53
2023-04-01T05:37:53.252Z,1.17
2023-04-01T05:39:59.546Z,0.80
2023-04-01T05:42:03.154Z,2.20
2023-04-01T05:44:08.009Z,1.40
2023-04-01T05:46:17.006Z,0.80
2023-04-01T05:48:30.051Z,0.83
2023-04-01T05:50:33.482Z,2.30
2023-04-01T05:52:37.413Z,1.53
2023-04-01T05:54:41.482Z,0.87
2023-04-01T05:56:47.533Z,2.10
2023-04-01T05:58:55.010Z,2.63
2023-04-01T06:01:10.104Z,1.10
2023-04-01T06:03:16.391Z,0.90
2023-04-01T06:05:22.036Z,2.03
2023-04-01T06:07:25.692Z,1.27
2023-04-01T06:09:31.817Z,1.70
2023-04-01T06:11:44.345Z,1.23
2023-04-01T06:14:06.504Z,1.00
2023-04-01T06:16:24.211Z,0.90
2023-04-01T06:18:55.063Z,0.80
2023-04-01T06:21:09.322Z,1.20
2023-04-01T06:23:28.450Z,1.10
2023-04-01T06:25:51.473Z,1.20
2023-04-01T06:28:09.714Z,1.00
2023-04-01T06:30:32.464Z,1.43
2023-04-01T06:33:01.336Z,1.80
2023-04-01T06:35:46.038Z,1.10
2023-04-01T06:38:12.876Z,1.27
2023-04-01T06:40:42.002Z,1.00
2023-04-01T06:43:02.027Z,1.30
2023-04-01T06:45:37.810Z,1.00
2023-04-01T06:48:16.051Z,0.97
2023-04-01T06:50:44.907Z,1.77
2023-04-01T06:53:14.658Z,1.30
2023-04-01T06:55:41.925Z,1.00
2023-04-01T06:58:22.838Z,0.97
2023-04-01T07:00:32.104Z,1.37
2023-04-01T07:02:41.498Z,1.20
2023-04-01T07:04:50.735Z,1.30
2023-04-01T07:06:57.948Z,1.20
2023-04-01T07:09:06.368Z,1.67
2023-04-01T07:11:33.519Z,1.50
2023-04-01T07:14:14.432Z,2.20
2023-04-01T07:16:22.360Z,1.47
2023-04-01T07:18:34.838Z,3.10
2023-04-01T07:20:42.823Z,2.20
2023-04-01T07:22:48.245Z,2.50
2023-04-01T07:25:05.286Z,1.30
2023-04-01T07:27:11.943Z,2.03
2023-04-01T07:29:17.593Z,1.47
2023-04-01T07:31:43.380Z,1.73
2023-04-01T07:33:55.290Z,2.17
2023-04-01T07:36:06.888Z,1.30
2023-04-01T07:38:21.213Z,1.30
2023-04-01T07:40:34.098Z,1.40
2023-04-01T07:42:52.034Z,2.30
2023-04-01T07:45:06.018Z,1.30
2023-04-01T07:47:42.495Z,3.47
2023-04-01T07:49:56.312Z,2.40
2023-04-01T07:52:07.271Z,2.63
2023-04-01T07:54:23.941Z,1.83
2023-04-01T07:56:35.213Z,2.40
2023-04-01T07:58:47.779Z,2.00
2023-04-01T08:01:16.446Z,2.17
2023-04-01T08:03:38.077Z,2.07
2023-04-01T08:05:52.797Z,1.73
2023-04-01T08:08:08.055Z,1.20
2023-04-01T08:10:52.550Z,2.87
2023-04-01T08:13:22.879Z,2.23
2023-04-01T08:15:53.164Z,1.73
2023-04-01T08:18:18.547Z,1.80
2023-04-01T08:20:30.850Z,1.70
2023-04-01T08:22:42.700Z,1.60
2023-04-01T08:25:00.868Z,1.70
2023-04-01T08:27:12.754Z,1.30
2023-04-01T08:29:21.973Z,0.90
2023-04-01T08:31:32.141Z,1.20
2023-04-01T08:33:35.941Z,1.10
2023-04-01T08:35:51.716Z,1.00
2023-04-01T08:37:58.248Z,2.10
2023-04-01T08:40:24.980Z,1.53
2023-04-01T08:42:52.304Z,1.13
2023-04-01T08:45:18.221Z,1.40
2023-04-01T08:47:53.215Z,2.70
2023-04-01T08:50:24.137Z,1.37
2023-04-01T08:52:38.651Z,5.47
2023-04-01T08:54:57.049Z,1.87
2023-04-01T08:57:28.196Z,0.83
2023-04-01T09:00:06.385Z,1.10
2023-04-01T09:02:51.992Z,1.70
2023-04-01T09:05:33.222Z,0.90
2023-04-01T09:07:46.287Z,0.80
2023-04-01T09:10:10.354Z,1.00
2023-04-01T09:12:52.279Z,1.83
2023-04-01T09:15:27.560Z,0.80
2023-04-01T09:17:52.642Z,4.47
2023-04-01T09:20:19.226Z,1.47
2023-04-01T09:22:37.709Z,2.63
2023-04-01T09:25:04.086Z,0.93
2023-04-01T09:27:16.791Z,1.00
2023-04-01T09:29:39.440Z,0.80
2023-04-01T09:32:16.209Z,1.97
2023-04-01T09:34:56.718Z,1.30
2023-04-01T09:37:20.357Z,1.07
2023-04-01T09:39:38.323Z,1.43
2023-04-01T09:42:05.458Z,1.60
2023-04-01T09:44:21.019Z,1.30
2023-04-01T09:46:56.379Z,1.70
2023-04-01T09:49:43.197Z,1.40
2023-04-01T09:51:57.445Z,1.73
2023-04-01T09:54:13.549Z,2.13
2023-04-01T09:56:40.291Z,1.73
2023-04-01T09:59:17.781Z,2.13
2023-04-01T10:02:15.764Z,1.90
2023-04-01T10:05:02.242Z,2.03
2023-04-01T10:07:37.337Z,1.73
2023-04-01T10:10:17.454Z,1.60
2023-04-01T10:12:52.093Z,1.77
2023-04-01T10:15:34.910Z,2.37
2023-04-01T10:17:58.625Z,2.23
2023-04-01T10:20:21.380Z,2.63
2023-04-01T10:22:52.382Z,3.57
2023-04-01T10:25:21.056Z,1.83
2023-04-01T10:27:46.104Z,2.30
2023-04-01T10:30:59.865Z,1.93
2023-04-01T10:33:40.171Z,3.37
2023-04-01T10:36:34.558Z,1.90
2023-04-01T10:39:10.893Z,1.50
2023-04-01T10:41:59.269Z,1.70
2023-04-01T10:44:35.378Z,1.70
2023-04-01T10:47:25.450Z,1.90
2023-04-01T10:49:57.895Z,1.77
2023-04-01T10:52:41.702Z,1.67
2023-04-01T10:55:37.489Z,1.90
2023-04-01T10:58:28.856Z,2.80
2023-04-01T11:01:38.992Z,3.50
2023-04-01T11:04:48.520Z,2.67
2023-04-01T11:07:32.297Z,2.53
2023-04-01T11:10:08.038Z,2.10
2023-04-01T11:13:08.275Z,2.97
2023-04-01T11:15:50.757Z,3.97
2023-04-01T11:18:31.846Z,3.90
2023-04-01T11:21:02.609Z,2.70
2023-04-01T11:23:28.303Z,2.30
2023-04-01T11:25:45.408Z,2.53
2023-04-01T11:28:35.466Z,3.13
2023-04-01T11:30:56.632Z,3.10
2023-04-01T11:33:05.130Z,2.60
2023-04-01T11:35:53.831Z,3.90
2023-04-01T11:38:03.136Z,3.33
2023-04-01T11:40:34.405Z,3.70
2023-04-01T11:43:01.289Z,3.40
2023-04-01T11:45:48.871Z,3.00
2023-04-01T11:48:36.616Z,3.13
2023-04-01T11:50:59.373Z,3.13
2023-04-01T11:53:33.426Z,2.60
2023-04-01T11:55:50.536Z,2.93
2023-04-01T11:58:25.346Z,2.87
2023-04-01T12:00:59.438Z,2.90
2023-04-01T12:03:20.496Z,2.20
2023-04-01T12:05:40.060Z,2.63
2023-04-01T12:07:57.737Z,3.13
2023-04-01T12:10:13.134Z,2.43
2023-04-01T12:12:29.360Z,2.80
2023-04-01T12:14:44.282Z,2.20
2023-04-01T12:17:00.633Z,2.70
2023-04-01T12:19:13.902Z,2.63
2023-04-01T12:21:28.527Z,3.47
2023-04-01T12:23:53.825Z,5.27
2023-04-01T12:26:28.378Z,3.17
2023-04-01T12:28:46.509Z,2.10
2023-04-01T12:31:12.610Z,2.30
2023-04-01T12:33:42.813Z,2.00
2023-04-01T12:35:58.624Z,1.83
2023-04-01T12:38:20.397Z,1.83
2023-04-01T12:40:40.277Z,2.40
2023-04-01T12:42:58.031Z,2.90
2023-04-01T12:45:24.994Z,2.50
2023-04-01T12:48:02.280Z,2.33
2023-04-01T12:50:21.729Z,2.87
2023-04-01T12:52:34.100Z,2.73
2023-04-01T12:55:07.260Z,4.43
2023-04-01T12:57:26.538Z,2.70
2023-04-01T12:59:44.716Z,2.30
2023-04-01T13:02:02.464Z,2.47
2023-04-01T13:04:33.512Z,1.83
2023-04-01T13:06:52.525Z,2.20
2023-04-01T13:09:05.449Z,2.27
2023-04-01T13:11:15.399Z,2.50
2023-04-01T13:13:43.516Z,2.20
2023-04-01T13:15:54.821Z,2.40
2023-04-01T13:18:13.006Z,2.83
2023-04-01T13:20:25.453Z,2.37
2023-04-01T13:22:37.118Z,3.00
2023-04-01T13:24:48.364Z,2.83
2023-04-01T13:26:58.803Z,2.80
2023-04-01T13:29:08.831Z,2.70
2023-04-01T13:31:26.097Z,2.97
2023-04-01T13:33:40.784Z,2.70
2023-04-01T13:35:50.593Z,2.93
2023-04-01T13:38:10.916Z,2.70
2023-04-01T13:40:34.418Z,3.27
2023-04-01T13:42:46.891Z,3.27
2023-04-01T13:44:55.496Z,3.00
2023-04-01T13:47:14.571Z,3.60
2023-04-01T13:49:48.728Z,3.20
2023-04-01T13:52:11.839Z,3.80
2023-04-01T13:54:39.165Z,4.23
2023-04-01T13:56:51.019Z,3.00
2023-04-01T13:59:12.226Z,3.00
2023-04-01T14:01:23.432Z,3.77
2023-04-01T14:03:34.492Z,3.43
2023-04-01T14:06:04.567Z,3.40
2023-04-01T14:08:19.550Z,3.77
2023-04-01T14:10:30.135Z,4.00
2023-04-01T14:12:42.319Z,3.83
2023-04-01T14:15:02.777Z,3.20
2023-04-01T14:17:19.866Z,3.40
2023-04-01T14:19:32.748Z,3.97
2023-04-01T14:21:43.804Z,2.97
2023-04-01T14:24:24.103Z,3.27
2023-04-01T14:26:47.473Z,3.27
2023-04-01T14:29:02.130Z,3.60
2023-04-01T14:31:25.722Z,3.70
2023-04-01T14:33:39.968Z,3.50
2023-04-01T14:35:53.223Z,3.33
2023-04-01T14:38:53.291Z,2.77
2023-04-01T14:41:02.464Z,3.80
2023-04-01T14:43:24.359Z,7.03
2023-04-01T14:45:47.307Z,4.37
2023-04-01T14:47:54.965Z,4.50
2023-04-01T14:50:08.519Z,3.33
2023-04-01T14:52:18.202Z,4.53
2023-04-01T14:54:34.270Z,3.40
2023-04-01T14:56:39.559Z,3.87
2023-04-01T14:58:46.777Z,3.60
2023-04-01T15:00:58.010Z,3.60
2023-04-01T15:03:10.172Z,3.43
2023-04-01T15:05:26.918Z,3.67
2023-04-01T15:07:56.544Z,3.50
2023-04-01T15:10:09.304Z,3.47
2023-04-01T15:12:26.179Z,3.80
2023-04-01T15:14:51.683Z,3.40
2023-04-01T15:17:07.364Z,4.20
2023-04-01T15:19:23.631Z,4.40
2023-04-01T15:21:44.761Z,4.07
2023-04-01T15:24:01.998Z,3.87
2023-04-01T15:26:24.154Z,2.73
2023-04-01T15:28:37.157Z,4.00
2023-04-01T15:30:50.204Z,3.23
2023-04-01T15:33:09.857Z,3.73
2023-04-01T15:35:27.147Z,3.57
2023-04-01T15:37:41.803Z,3.63
2023-04-01T15:39:56.774Z,3.00
2023-04-01T15:42:19.262Z,3.23
2023-04-01T15:44:48.221Z,2.93
2023-04-01T15:46:52.292Z,4.00
2023-04-01T15:49:06.963Z,3.73
2023-04-01T15:51:18.949Z,3.27
2023-04-01T15:53:39.438Z,2.90
2023-04-01T15:55:50.336Z,4.90
2023-04-01T15:58:18.203Z,3.07
2023-04-01T16:00:28.202Z,3.73
2023-04-01T16:02:37.831Z,3.90
2023-04-01T16:04:56.291Z,4.10
2023-04-01T16:07:12.096Z,3.57
2023-04-01T16:09:47.459Z,3.53
2023-04-01T16:11:59.157Z,2.93
2023-04-01T16:14:18.482Z,2.90
2023-04-01T16:16:33.374Z,3.43
2023-04-01T16:18:59.390Z,3.63
2023-04-01T16:21:06.834Z,4.40
2023-04-01T16:23:20.670Z,3.20
2023-04-01T16:25:36.035Z,4.23
2023-04-01T16:27:47.451Z,4.23
2023-04-01T16:29:58.413Z,3.23
2023-04-01T16:32:20.108Z,4.70
2023-04-01T16:34:32.540Z,3.30
2023-04-01T16:36:39.883Z,2.80
2023-04-01T16:38:51.253Z,3.20
2023-04-01T16:41:09.237Z,2.57
2023-04-01T16:43:19.186Z,3.30
2023-04-01T16:45:35.410Z,12.80
2023-04-01T16:47:47.349Z,3.23
2023-04-01T16:49:55.861Z,2.77
2023-04-01T16:52:15.010Z,3.10
2023-04-01T16:54:30.264Z,3.67
2023-04-01T16:56:41.852Z,3.23
2023-04-01T16:59:03.477Z,3.87
2023-04-01T17:01:14.916Z,4.87
2023-04-01T17:03:23.760Z,4.70
2023-04-01T17:05:42.840Z,3.80
2023-04-01T17:08:02.826Z,4.47
2023-04-01T17:10:24.675Z,5.60
2023-04-01T17:12:37.266Z,4.70
2023-04-01T17:14:49.609Z,3.83
2023-04-01T17:17:03.563Z,4.43
2023-04-01T17:19:17.474Z,2.80
2023-04-01T17:21:26.167Z,4.00
2023-04-01T17:23:36.310Z,4.17
2023-04-01T17:26:05.421Z,4.13
2023-04-01T17:28:22.183Z,3.60
2023-04-01T17:30:37.746Z,3.30
2023-04-01T17:32:54.310Z,2.80
2023-04-01T17:35:08.506Z,3.13
2023-04-01T17:37:25.543Z,4.40
2023-04-01T17:39:41.979Z,3.50
2023-04-01T17:41:53.330Z,4.60
2023-04-01T17:44:05.420Z,3.97
2023-04-01T17:46:29.199Z,6.57
2023-04-01T17:48:47.207Z,5.43
2023-04-01T17:51:04.129Z,4.17
2023-04-01T17:53:20.686Z,4.20
2023-04-01T17:55:49.563Z,3.60
2023-04-01T17:57:58.008Z,2.87
2023-04-01T18:00:09.715Z,2.50
2023-04-01T18:02:28.027Z,2.53
2023-04-01T18:04:48.655Z,2.80
2023-04-01T18:07:09.839Z,4.70
2023-04-01T18:09:26.599Z,2.90
2023-04-01T18:11:44.316Z,3.13
2023-04-01T18:14:17.183Z,2.73
2023-04-01T18:16:43.910Z,2.43
2023-04-01T18:18:59.610Z,2.77
2023-04-01T18:21:11.483Z,2.77
2023-04-01T18:23:26.471Z,3.10
2023-04-01T18:25:36.272Z,3.00
2023-04-01T18:27:42.266Z,3.27
2023-04-01T18:29:53.266Z,3.53
2023-04-01T18:32:10.314Z,5.27
2023-04-01T18:34:21.248Z,4.70
2023-04-01T18:36:36.385Z,4.70
2023-04-01T18:38:47.768Z,3.30
2023-04-01T18:40:55.434Z,3.63
2023-04-01T18:43:11.118Z,5.10
2023-04-01T18:45:22.767Z,3.83
2023-04-01T18:47:38.840Z,6.17
2023-04-01T18:49:48.159Z,6.17
2023-04-01T18:51:58.766Z,5.30
2023-04-01T18:54:07.016Z,5.83
2023-04-01T18:56:14.814Z,4.47
2023-04-01T18:58:26.380Z,5.20
2023-04-01T19:00:38.118Z,5.50
2023-04-01T19:02:47.029Z,6.90
2023-04-01T19:05:02.410Z,5.37
2023-04-01T19:07:41.469Z,5.47
2023-04-01T19:09:49.188Z,6.30
2023-04-01T19:12:14.080Z,5.60
2023-04-01T19:14:27.053Z,5.87
2023-04-01T19:16:44.926Z,7.40
2023-04-01T19:19:07.756Z,6.40
2023-04-01T19:21:16.324Z,7.83
2023-04-01T19:23:52.301Z,5.53
2023-04-01T19:25:57.690Z,5.37
2023-04-01T19:28:09.509Z,5.90
2023-04-01T19:30:26.566Z,8.00
2023-04-01T19:32:42.345Z,5.60
2023-04-01T19:34:55.335Z,6.83
2023-04-01T19:37:04.236Z,6.17
2023-04-01T19:39:25.915Z,7.17
2023-04-01T19:41:37.935Z,8.40
2023-04-01T19:43:53.011Z,6.83
2023-04-01T19:46:08.489Z,6.03
2023-04-01T19:48:30.252Z,4.87
2023-04-01T19:50:40.470Z,4.50
2023-04-01T19:52:43.944Z,6.73
2023-04-01T19:54:59.200Z,5.20
2023-04-01T19:57:15.087Z,5.17
2023-04-01T19:59:24.961Z,4.20
2023-04-01T20:01:44.861Z,4.60
2023-04-01T20:03:56.287Z,5.50
2023-04-01T20:06:11.319Z,4.17
2023-04-01T20:08:21.007Z,4.90
2023-04-01T20:10:36.080Z,4.93
2023-04-01T20:12:47.006Z,3.83
2023-04-01T20:14:52.917Z,4.43
2023-04-01T20:17:09.680Z,4.43
2023-04-01T20:19:14.229Z,4.80
2023-04-01T20:21:32.092Z,4.67
2023-04-01T20:23:43.779Z,3.53
2023-04-01T20:25:53.707Z,4.40
2023-04-01T20:28:00.904Z,5.40
2023-04-01T20:30:29.191Z,4.80
2023-04-01T20:33:09.528Z,4.67
2023-04-01T20:35:31.484Z,4.53
2023-04-01T20:37:42.474Z,4.60
2023-04-01T20:40:15.569Z,5.20
2023-04-01T20:42:29.566Z,5.00
2023-04-01T20:44:43.548Z,5.57
2023-04-01T20:46:55.089Z,5.27
2023-04-01T20:49:19.087Z,4.77
2023-04-01T20:51:27.274Z,5.50
2023-04-01T20:53:37.981Z,4.83
2023-04-01T20:56:16.689Z,4.97
2023-04-01T20:58:30.910Z,5.97
2023-04-01T21:00:42.228Z,5.17
2023-04-01T21:02:54.976Z,5.10
2023-04-01T21:05:37.106Z,5.40
2023-04-01T21:07:47.606Z,5.77
2023-04-01T21:10:07.769Z,5.03
2023-04-01T21:12:25.524Z,5.20
2023-04-01T21:14:59.358Z,5.07
2023-04-01T21:17:10.531Z,6.07
2023-04-01T21:19:33.096Z,5.07
2023-04-01T21:21:52.876Z,5.90
2023-04-01T21:24:30.416Z,6.27
2023-04-01T21:26:49.948Z,6.10
2023-04-01T21:29:10.844Z,4.80
2023-04-01T21:31:29.401Z,5.70
2023-04-01T21:33:45.760Z,7.33
2023-04-01T21:36:00.492Z,6.60
2023-04-01T21:38:29.943Z,5.37
2023-04-01T21:41:06.447Z,5.10
2023-04-01T21:43:34.297Z,5.50
2023-04-01T21:45:54.271Z,7.00
2023-04-01T21:48:29.132Z,6.33
2023-04-01T21:50:47.617Z,6.03
2023-04-01T21:53:10.327Z,6.60
2023-04-01T21:55:43.355Z,6.27
2023-04-01T21:58:22.584Z,5.50
2023-04-01T22:00:27.748Z,6.27
2023-04-01T22:03:26.610Z,5.93
2023-04-01T22:05:38.333Z,5.50
2023-04-01T22:07:51.472Z,6.30
2023-04-01T22:10:05.013Z,5.07
2023-04-01T22:12:15.967Z,5.90
2023-04-01T22:14:27.260Z,6.50
2023-04-01T22:16:38.172Z,5.80
2023-04-01T22:18:48.198Z,5.93
2023-04-01T22:21:06.041Z,6.00
2023-04-01T22:23:28.235Z,5.97
2023-04-01T22:25:37.722Z,6.20
2023-04-01T22:27:48.565Z,5.23
2023-04-01T22:30:02.894Z,5.30
2023-04-01T22:32:10.484Z,6.40
2023-04-01T22:34:21.972Z,4.50
2023-04-01T22:36:35.905Z,4.93
2023-04-01T22:38:56.874Z,4.60
2023-04-01T22:41:07.567Z,4.50
2023-04-01T22:43:14.681Z,5.00
2023-04-01T22:45:32.525Z,4.83
2023-04-01T22:47:44.646Z,4.93
2023-04-01T22:49:53.727Z,5.07
2023-04-01T22:52:05.725Z,4.40
2023-04-01T22:54:17.542Z,6.30
2023-04-01T22:56:26.849Z,5.67
2023-04-01T22:58:36.602Z,6.73
2023-04-01T23:00:45.482Z,4.97
2023-04-01T23:03:02.179Z,6.03
2023-04-01T23:05:11.746Z,5.57
2023-04-01T23:07:47.635Z,5.73
2023-04-01T23:09:52.494Z,5.00
2023-04-01T23:11:59.786Z,7.83
2023-04-01T23:14:29.882Z,7.10
2023-04-01T23:16:41.252Z,6.70
2023-04-01T23:18:52.828Z,6.33
2023-04-01T23:21:06.399Z,7.30
2023-04-01T23:23:33.188Z,7.93
2023-04-01T23:25:47.827Z,6.90
2023-04-01T23:27:58.390Z,6.10
2023-04-01T23:30:01.960Z,6.40
2023-04-01T23:32:06.505Z,5.73
2023-04-01T23:34:32.081Z,8.37
2023-04-01T23:36:41.305Z,7.90
2023-04-01T23:38:50.900Z,7.27
2023-04-01T23:40:56.600Z,6.17
2023-04-01T23:43:00.317Z,6.13
2023-04-01T23:45:06.926Z,7.10
2023-04-01T23:47:17.636Z,8.90
2023-04-01T23:49:26.078Z,8.87
2023-04-01T23:51:31.491Z,9.47
2023-04-01T23:53:36.160Z,8.80
2023-04-01T23:55:43.455Z,9.17
2023-04-01T23:58:09.388Z,9.23
